Time;durP1;ratioP1;P1;durP2;ratioP2;P2;SDS_P1;SDS_P2;PMS_P1;PMS_P2;Temp;Humidity;BMP_temperature;BMP_pressure;BME280_temperature;BME280_humidity;BME280_pressure;Samples;Min_cycle;Max_cycle;Signal;HPM_P1;HPM_P2
2023/01/12 00:01:45;;;;;;;0.60;0.60;;;6.70;88.50;5.90;96261.00;;;;5038788;28;20215;-69
2023/01/12 00:04:13;;;;;;;0.60;0.60;;;;;6.00;96277.00;;;;5056605;28;20549;-69
2023/01/12 00:06:41;;;;;;;1.23;1.23;;;6.70;87.70;5.90;96278.00;;;;5056822;28;20207;-69
2023/01/12 00:09:09;;;;;;;4.60;1.57;;;6.70;88.60;5.90;96262.00;;;;5056502;28;20223;-69
2023/01/12 00:11:38;;;;;;;0.73;0.73;;;6.70;88.70;6.10;96271.00;;;;5038591;28;20196;-69
2023/01/12 00:14:09;;;;;;;0.67;0.67;;;6.80;88.80;6.00;96260.00;;;;5055116;28;20254;-69
2023/01/12 00:16:40;;;;;;;0.97;0.97;;;6.80;88.10;6.00;96269.00;;;;5056544;28;20184;-69
2023/01/12 00:19:10;;;;;;;1.27;1.17;;;6.90;87.80;6.00;96270.00;;;;5056798;28;20534;-70
2023/01/12 00:21:55;;;;;;;0.60;0.60;;;6.80;88.40;5.80;96278.00;;;;5056737;28;20183;-69
2023/01/12 00:24:24;;;;;;;1.43;1.33;;;6.70;88.90;5.90;96265.00;;;;5056422;28;20208;-69
2023/01/12 00:26:52;;;;;;;0.60;0.60;;;6.70;89.10;5.90;96273.00;;;;5056462;28;20552;-69
2023/01/12 00:29:23;;;;;;;1.07;1.07;;;6.70;88.80;6.00;96264.00;;;;5056066;28;20726;-69
2023/01/12 00:31:52;;;;;;;0.60;0.60;;;6.80;88.50;6.00;96266.00;;;;5056381;28;20612;-69
2023/01/12 00:34:19;;;;;;;0.70;0.70;;;6.70;88.30;6.10;96266.00;;;;5056239;28;20212;-69
2023/01/12 00:36:47;;;;;;;0.77;0.77;;;6.70;87.80;5.90;96256.00;;;;5056306;28;20192;-68
2023/01/12 00:39:15;;;;;;;1.07;1.07;;;6.70;88.50;6.00;96267.00;;;;5055868;28;20231;-69
2023/01/12 00:47:17;;;;;;;0.80;0.80;;;6.70;88.30;5.90;96253.00;;;;5056036;28;20204;-69
2023/01/12 00:49:44;;;;;;;0.93;0.73;;;6.70;89.00;5.90;96253.00;;;;5036709;28;20225;-69
2023/01/12 00:52:14;;;;;;;1.13;1.00;;;;;5.80;96258.00;;;;5055706;28;20277;-69
2023/01/12 00:54:41;;;;;;;0.70;0.70;;;6.70;88.70;6.00;96252.00;;;;5055690;28;20219;-68
2023/01/12 00:57:09;;;;;;;0.93;0.93;;;;;6.10;96241.00;;;;5055598;28;20238;-69
2023/01/12 00:59:37;;;;;;;3.40;1.17;;;6.80;87.60;6.10;96231.00;;;;5055449;28;20306;-69
2023/01/12 01:02:05;;;;;;;1.37;1.27;;;6.80;86.90;6.10;96236.00;;;;5055506;28;20185;-69
2023/01/12 01:04:34;;;;;;;1.00;1.00;;;;;6.10;96228.00;;;;5055713;28;20201;-68
2023/01/12 01:07:01;;;;;;;2.70;1.33;;;6.80;86.90;6.20;96235.00;;;;5055377;28;20242;-69
2023/01/12 01:09:28;;;;;;;0.50;0.50;;;6.90;86.80;6.20;96238.00;;;;5055627;28;20613;-70
2023/01/12 01:11:56;;;;;;;0.60;0.60;;;6.90;86.80;6.10;96235.00;;;;5055419;28;20192;-70
2023/01/12 01:14:23;;;;;;;0.50;0.50;;;;;6.30;96222.00;;;;5055601;28;20258;-69
2023/01/12 01:16:52;;;;;;;0.70;0.70;;;7.00;86.40;6.20;96229.00;;;;5055344;28;20204;-70
2023/01/12 01:19:19;;;;;;;0.60;0.60;;;;;6.00;96235.00;;;;5055478;28;20225;-70
2023/01/12 01:21:46;;;;;;;0.70;0.70;;;;;5.90;96227.00;;;;5055782;28;20246;-70
2023/01/12 01:24:14;;;;;;;1.00;0.97;;;;;6.00;96234.00;;;;5055118;28;20192;-68
2023/01/12 01:26:42;;;;;;;0.93;0.93;;;;;6.00;96233.00;;;;5055410;28;20793;-70
2023/01/12 01:29:10;;;;;;;0.77;0.77;;;;;6.00;96247.00;;;;5055586;28;20190;-69
2023/01/12 01:31:37;;;;;;;1.50;1.40;;;;;6.00;96254.00;;;;5055541;28;20649;-69
2023/01/12 01:34:06;;;;;;;0.60;0.60;;;6.70;90.10;5.90;96248.00;;;;5054859;28;20555;-69
2023/01/12 01:36:33;;;;;;;1.37;1.27;;;6.70;90.30;6.00;96236.00;;;;5054889;28;20189;-69
2023/01/12 01:39:01;;;;;;;1.50;0.87;;;;;6.10;96254.00;;;;5055017;28;20203;-69
2023/01/12 01:41:30;;;;;;;3.03;1.20;;;;;6.00;96250.00;;;;5054807;28;20192;-69
2023/01/12 01:44:00;;;;;;;0.77;0.77;;;;;6.10;96252.00;;;;5055024;28;20238;-69
2023/01/12 01:46:39;;;;;;;0.53;0.53;;;6.90;89.40;6.20;96254.00;;;;5054969;28;20194;-69
2023/01/12 01:49:28;;;;;;;0.90;0.87;;;6.80;89.70;6.00;96254.00;;;;5054663;28;20198;-69
2023/01/12 01:52:03;;;;;;;1.13;1.13;;;6.80;90.60;5.90;96259.00;;;;5055177;28;20296;-69
2023/01/12 01:54:37;;;;;;;0.90;0.90;;;6.80;90.90;6.00;96261.00;;;;5054775;28;20213;-68
2023/01/12 01:57:06;;;;;;;0.60;0.60;;;6.90;90.30;6.20;96255.00;;;;5055040;28;20188;-68
2023/01/12 02:02:07;;;;;;;0.90;0.90;;;6.90;90.80;6.00;96245.00;;;;5033483;28;20227;-59
2023/01/12 02:04:36;;;;;;;1.77;1.07;;;6.90;90.80;6.00;96256.00;;;;5034511;28;20199;-59
2023/01/12 02:07:05;;;;;;;2.27;1.73;;;6.80;91.20;6.00;96245.00;;;;5034409;28;20200;-59
2023/01/12 02:09:33;;;;;;;0.83;0.83;;;6.90;90.70;6.20;96248.00;;;;5034434;28;20319;-60
2023/01/12 02:18:00;;;;;;;1.27;1.27;;;6.80;90.70;6.00;96239.00;;;;5034410;28;20192;-59
2023/01/12 02:20:48;;;;;;;1.20;1.20;;;;;6.00;96235.00;;;;5034077;28;20212;-60
2023/01/12 02:23:44;;;;;;;0.60;0.60;;;;;6.20;96217.00;;;;5034567;28;20268;-59
2023/01/12 02:27:11;;;;;;;0.70;0.70;;;6.90;89.30;6.10;96210.00;;;;5016275;28;20263;-59
2023/01/12 02:30:46;;;;;;;18.13;1.20;;;6.90;89.20;6.00;96216.00;;;;5033836;28;20188;-59
2023/01/12 02:33:33;;;;;;;0.70;0.70;;;7.00;89.00;6.10;96201.00;;;;4953901;29;20261;-59
2023/01/12 02:36:12;;;;;;;0.60;0.60;;;6.90;89.90;6.20;96195.00;;;;4953695;29;20250;-59
2023/01/12 02:38:49;;;;;;;0.70;0.70;;;6.90;89.50;6.30;96189.00;;;;5007358;28;20264;-60
2023/01/12 02:42:39;;;;;;;0.67;0.67;;;;;6.20;96180.00;;;;5033881;28;20220;-60
2023/01/12 02:44:18;;;;;;;0.60;0.60;;;;;6.10;96181.00;;;;5033575;28;20626;-60
2023/01/12 02:46:51;;;;;;;0.60;0.60;;;6.90;88.30;6.10;96182.00;;;;5034146;28;20191;-60
2023/01/12 02:49:26;;;;;;;0.70;0.70;;;6.90;88.60;6.00;96186.00;;;;5033888;28;20247;-59
2023/01/12 02:51:58;;;;;;;0.60;0.60;;;6.90;88.70;6.20;96188.00;;;;5032237;28;20574;-59
2023/01/12 02:54:28;;;;;;;0.80;0.80;;;;;6.20;96185.00;;;;5033682;28;20213;-59
2023/01/12 02:57:01;;;;;;;0.60;0.60;;;7.00;88.50;6.30;96202.00;;;;5033953;28;20203;-59
2023/01/12 02:59:32;;;;;;;1.43;1.33;;;;;6.30;96181.00;;;;5033439;28;20181;-59
2023/01/12 03:02:04;;;;;;;0.60;0.60;;;;;6.20;96183.00;;;;5033254;28;20203;-60
2023/01/12 03:04:33;;;;;;;0.80;0.80;;;7.00;88.30;6.20;96186.00;;;;5033435;28;20173;-59
2023/01/12 03:07:41;;;;;;;0.90;0.90;;;6.90;88.90;6.10;96187.00;;;;5033352;28;20273;-59
2023/01/12 03:11:00;;;;;;;0.60;0.60;;;6.90;89.90;6.10;96194.00;;;;5033450;28;20228;-59
2023/01/12 03:13:29;;;;;;;0.97;0.97;;;;;6.10;96200.00;;;;5032588;28;20195;-59
2023/01/12 03:15:59;;;;;;;0.90;0.90;;;6.90;89.80;6.10;96198.00;;;;5033439;28;20559;-59
2023/01/12 03:18:32;;;;;;;0.80;0.80;;;;;6.20;96182.00;;;;5033155;28;20191;-59
2023/01/12 03:21:08;;;;;;;0.57;0.57;;;6.90;90.30;6.00;96178.00;;;;5033296;28;20218;-59
2023/01/12 03:23:42;;;;;;;1.20;1.17;;;;;6.00;96186.00;;;;5033120;28;20177;-59
2023/01/12 03:26:13;;;;;;;0.60;0.60;;;;;6.00;96189.00;;;;5033121;28;20189;-59
2023/01/12 03:28:45;;;;;;;1.07;1.07;;;6.80;90.40;6.00;96180.00;;;;5033034;28;20652;-59
2023/01/12 03:31:14;;;;;;;0.80;0.80;;;6.70;91.60;5.90;96182.00;;;;5032923;28;20214;-59
2023/01/12 03:33:44;;;;;;;0.80;0.80;;;6.70;91.70;5.90;96148.00;;;;5033392;28;20199;-59
2023/01/12 03:36:24;;;;;;;0.90;0.90;;;;;5.90;96151.00;;;;5032876;28;20204;-59
2023/01/12 03:39:01;;;;;;;1.57;1.47;;;;;6.00;96165.00;;;;5033475;28;20196;-59
2023/01/12 03:41:40;;;;;;;0.70;0.70;;;6.70;92.10;5.80;96162.00;;;;5033154;28;20212;-59
2023/01/12 03:44:17;;;;;;;0.67;0.67;;;;;6.00;96168.00;;;;5032888;28;20185;-59
2023/01/12 03:46:53;;;;;;;1.77;1.67;;;;;6.00;96169.00;;;;5033173;28;20638;-59
2023/01/12 03:49:25;;;;;;;1.63;0.90;;;;;6.00;96164.00;;;;5032820;28;20184;-59
2023/01/12 03:51:57;;;;;;;2.43;1.33;;;;;5.90;96167.00;;;;5033258;28;20217;-60
2023/01/12 03:54:26;;;;;;;0.70;0.70;;;;;5.90;96162.00;;;;5033037;28;20231;-59
2023/01/12 03:56:54;;;;;;;1.00;1.00;;;;;5.90;96186.00;;;;5032751;28;20247;-59
2023/01/12 03:59:22;;;;;;;0.73;0.73;;;;;5.90;96177.00;;;;5032763;28;20193;-59
2023/01/12 04:01:50;;;;;;;1.03;1.03;;;;;5.80;96177.00;;;;5032828;28;20583;-59
2023/01/12 04:04:18;;;;;;;4.23;1.47;;;;;5.90;96189.00;;;;5032957;28;20188;-60
2023/01/12 04:06:46;;;;;;;18.87;1.40;;;;;5.90;96180.00;;;;5032698;28;20280;-60
2023/01/12 04:09:15;;;;;;;0.60;0.60;;;;;5.90;96184.00;;;;5032886;28;20258;-59
2023/01/12 04:14:27;;;;;;;1.33;1.23;;;;;5.80;96174.00;;;;5032572;28;20203;-59
2023/01/12 04:16:54;;;;;;;0.90;0.90;;;;;5.90;96169.00;;;;5032579;28;20247;-59
2023/01/12 04:19:21;;;;;;;0.70;0.70;;;;;6.00;96164.00;;;;5032548;28;20201;-60
2023/01/12 04:24:35;;;;;;;0.60;0.60;;;;;5.90;96149.00;;;;5035302;28;20187;-59
2023/01/12 04:27:02;;;;;;;1.00;1.00;;;;;5.90;96165.00;;;;5036230;28;20201;-60
2023/01/12 04:29:29;;;;;;;2.20;1.87;;;;;5.90;96153.00;;;;5036189;28;20252;-60
2023/01/12 04:31:57;;;;;;;1.07;1.00;;;;;6.00;96154.00;;;;5036189;28;20203;-59
2023/01/12 04:34:24;;;;;;;0.80;0.80;;;;;5.90;96164.00;;;;5036048;28;20225;-59
2023/01/12 04:36:52;;;;;;;1.13;1.03;;;;;6.10;96146.00;;;;5036348;28;20188;-59
2023/01/12 04:39:19;;;;;;;0.80;0.80;;;;;6.10;96150.00;;;;5036080;28;20247;-59
2023/01/12 04:41:48;;;;;;;0.93;0.93;;;;;6.00;96143.00;;;;5035921;28;20224;-60
2023/01/12 04:44:15;;;;;;;0.60;0.60;;;;;6.10;96139.00;;;;5036510;28;20191;-60
2023/01/12 04:46:42;;;;;;;1.33;1.23;;;;;6.10;96140.00;;;;5036594;28;20197;-60
2023/01/12 04:49:10;;;;;;;2.33;1.53;;;;;6.00;96137.00;;;;5035837;28;20266;-60
2023/01/12 04:51:37;;;;;;;0.60;0.60;;;;;6.10;96125.00;;;;5035862;28;20692;-60
2023/01/12 04:54:05;;;;;;;0.60;0.60;;;;;6.10;96129.00;;;;5035715;28;20193;-59
2023/01/12 04:56:32;;;;;;;0.60;0.60;;;;;6.20;96108.00;;;;5035828;28;20223;-60
2023/01/12 04:59:01;;;;;;;0.60;0.60;;;;;6.20;96147.00;;;;5035592;28;20196;-60
2023/01/12 05:01:29;;;;;;;0.97;0.80;;;;;6.40;96158.00;;;;5036199;28;20227;-60
2023/01/12 05:03:59;;;;;;;0.50;0.50;;;;;6.30;96144.00;;;;5035901;28;20197;-60
2023/01/12 05:06:27;;;;;;;0.60;0.60;;;;;6.20;96130.00;;;;5035807;28;20197;-59
2023/01/12 05:11:40;;;;;;;2.10;1.40;;;;;6.20;96147.00;;;;5035667;28;20215;-59
2023/01/12 05:14:08;;;;;;;1.10;1.00;;;;;6.20;96141.00;;;;5035618;28;20190;-59
2023/01/12 05:16:36;;;;;;;0.50;0.50;;;;;6.20;96147.00;;;;5035268;28;20240;-60
2023/01/12 05:19:03;;;;;;;0.67;0.67;;;;;6.00;96150.00;;;;5035598;28;20653;-60
2023/01/12 05:21:31;;;;;;;1.37;1.27;;;;;6.20;96143.00;;;;5035482;28;20628;-60
2023/01/12 05:23:58;;;;;;;0.63;0.63;;;;;6.20;96135.00;;;;5035208;28;20326;-60
2023/01/12 05:26:25;;;;;;;0.50;0.50;;;;;6.00;96142.00;;;;5035166;28;20245;-60
2023/01/12 05:28:53;;;;;;;0.67;0.67;;;;;6.00;96127.00;;;;5035156;28;20246;-59
2023/01/12 05:31:22;;;;;;;0.60;0.60;;;;;5.90;96121.00;;;;5035036;28;20217;-60
2023/01/12 05:33:49;;;;;;;0.60;0.60;;;;;5.90;96130.00;;;;5035333;28;20189;-60
2023/01/12 05:36:17;;;;;;;0.83;0.80;;;;;6.00;96127.00;;;;5034299;28;20213;-60
2023/01/12 05:38:44;;;;;;;0.60;0.60;;;;;5.90;96137.00;;;;5035227;28;20651;-60
2023/01/12 05:41:13;;;;;;;0.80;0.80;;;;;5.90;96131.00;;;;5034825;28;20212;-60
2023/01/12 05:43:49;;;;;;;2.43;1.53;;;;;5.80;96137.00;;;;5034857;28;20664;-59
2023/01/12 05:46:19;;;;;;;1.10;1.10;;;;;5.80;96149.00;;;;5035311;28;20260;-59
2023/01/12 05:48:48;;;;;;;0.80;0.80;;;;;5.80;96145.00;;;;5034711;28;20199;-60
2023/01/12 05:51:15;;;;;;;0.90;0.90;;;;;5.70;96122.00;;;;5034815;28;20216;-59
2023/01/12 05:53:43;;;;;;;0.70;0.70;;;;;5.70;96125.00;;;;5016858;28;20270;-60
2023/01/12 05:56:15;;;;;;;0.80;0.80;;;;;5.60;96117.00;;;;5034492;28;20274;-60
2023/01/12 05:58:42;;;;;;;0.60;0.60;;;;;5.70;96125.00;;;;5035096;28;20183;-60
2023/01/12 06:01:11;;;;;;;2.33;0.90;;;;;5.60;96109.00;;;;5034478;28;20271;-59
2023/01/12 06:03:38;;;;;;;0.77;0.73;;;;;5.70;96107.00;;;;5034453;28;20311;-60
2023/01/12 06:06:07;;;;;;;0.93;0.93;;;;;5.70;96104.00;;;;5034375;28;20198;-60
2023/01/12 06:08:34;;;;;;;0.70;0.70;;;;;5.70;96096.00;;;;5016567;28;20205;-60
2023/01/12 06:11:02;;;;;;;0.70;0.70;;;;;5.80;96083.00;;;;5034252;28;20722;-60
2023/01/12 06:16:15;;;;;;;4.00;0.90;;;;;5.70;96079.00;;;;5034067;28;20212;-60
2023/01/12 06:18:42;;;;;;;0.60;0.60;;;;;5.80;96085.00;;;;5034646;28;20615;-59
2023/01/12 06:21:11;;;;;;;0.60;0.60;;;;;5.80;96078.00;;;;5034257;28;20217;-60
2023/01/12 06:23:38;;;;;;;0.60;0.60;;;;;5.80;96077.00;;;;5034013;28;20592;-60
2023/01/12 06:26:08;;;;;;;1.00;1.00;;;;;5.80;96064.00;;;;5033960;28;20218;-59
2023/01/12 06:28:36;;;;;;;1.80;1.70;;;;;5.90;96076.00;;;;5034171;28;20738;-60
2023/01/12 06:31:05;;;;;;;2.47;2.27;;;;;5.70;96078.00;;;;5033930;28;20233;-59
2023/01/12 06:33:33;;;;;;;2.10;2.00;;;;;5.80;96065.00;;;;5033827;28;20207;-60
2023/01/12 06:36:01;;;;;;;1.93;1.33;;;;;5.90;96057.00;;;;5033979;28;20269;-60
2023/01/12 06:38:32;;;;;;;0.97;0.97;;;;;5.90;96066.00;;;;5033831;28;20263;-60
2023/01/12 06:41:02;;;;;;;1.03;1.03;;;;;5.90;96072.00;;;;5033880;28;20750;-59
2023/01/12 06:43:29;;;;;;;0.93;0.90;;;;;5.90;96064.00;;;;5034023;28;20199;-60
2023/01/12 06:45:58;;;;;;;0.70;0.70;;;;;6.00;96065.00;;;;5016025;28;20188;-60
2023/01/12 06:48:26;;;;;;;2.53;1.90;;;;;5.90;96070.00;;;;5033037;28;20196;-60
2023/01/12 06:50:56;;;;;;;1.27;1.27;;;;;5.90;96058.00;;;;5033564;28;20236;-60
2023/01/12 06:53:23;;;;;;;1.33;1.23;;;;;6.00;96055.00;;;;5033851;28;20220;-60
2023/01/12 06:55:52;;;;;;;0.83;0.83;;;;;6.10;96050.00;;;;5033485;28;20223;-59
2023/01/12 06:58:19;;;;;;;10.67;2.67;;;;;6.00;96047.00;;;;5033498;28;20196;-60
2023/01/12 07:00:47;;;;;;;0.60;0.60;;;;;6.00;96059.00;;;;5033381;28;20228;-60
2023/01/12 07:03:17;;;;;;;5.57;1.20;;;;;6.10;96065.00;;;;5034181;28;20572;-60
2023/01/12 07:05:44;;;;;;;0.60;0.60;;;;;6.10;96052.00;;;;5033978;28;20272;-60
2023/01/12 07:08:14;;;;;;;0.80;0.80;;;;;6.00;96057.00;;;;5033635;28;20563;-60
2023/01/12 07:10:42;;;;;;;0.60;0.60;;;;;6.10;96051.00;;;;5033871;28;20215;-60
2023/01/12 07:13:11;;;;;;;0.60;0.60;;;;;6.10;96057.00;;;;5033315;28;20193;-60
2023/01/12 07:15:38;;;;;;;8.23;2.30;;;;;6.10;96056.00;;;;5033131;28;20216;-60
2023/01/12 07:18:06;;;;;;;0.60;0.60;;;;;6.20;96058.00;;;;5033230;28;20192;-60
2023/01/12 07:20:33;;;;;;;0.90;0.90;;;;;6.10;96046.00;;;;5033089;28;20223;-60
2023/01/12 07:23:01;;;;;;;0.90;0.90;;;;;6.20;96044.00;;;;5033398;28;20553;-61
2023/01/12 07:25:28;;;;;;;12.83;1.43;;;;;6.20;96052.00;;;;5033121;28;20191;-60
2023/01/12 07:27:57;;;;;;;0.60;0.60;;;;;6.10;96048.00;;;;5033250;28;20594;-60
2023/01/12 07:30:27;;;;;;;0.90;0.90;;;;;6.20;96033.00;;;;5032982;28;20227;-60
2023/01/12 07:32:55;;;;;;;0.67;0.67;;;;;6.30;96034.00;;;;5033008;28;20209;-60
2023/01/12 07:35:23;;;;;;;0.87;0.87;;;;;6.20;96041.00;;;;5033115;28;20282;-60
2023/01/12 07:37:53;;;;;;;0.70;0.70;;;;;6.00;96056.00;;;;5032943;28;20202;-60
2023/01/12 07:40:21;;;;;;;1.00;1.00;;;;;6.10;96068.00;;;;5032913;28;20269;-60
2023/01/12 07:42:48;;;;;;;0.93;0.93;;;;;6.20;96055.00;;;;5032931;28;20202;-60
2023/01/12 07:45:15;;;;;;;1.27;1.20;;;;;6.30;96067.00;;;;5033439;28;20196;-60
2023/01/12 07:47:51;;;;;;;0.73;0.73;;;;;6.30;96046.00;;;;5032902;28;20254;-61
2023/01/12 07:50:19;;;;;;;0.80;0.80;;;;;6.40;96039.00;;;;5028689;28;20223;-61
2023/01/12 07:52:46;;;;;;;0.77;0.77;;;;;6.30;96023.00;;;;5028862;28;20200;-62
2023/01/12 07:55:15;;;;;;;1.70;1.60;;;;;6.40;96015.00;;;;5030695;28;20220;-62
2023/01/12 07:57:43;;;;;;;0.63;0.63;;;;;6.40;96010.00;;;;5030003;28;20250;-62
2023/01/12 08:02:51;;;;;;;1.03;1.03;;;7.00;92.30;6.30;96028.00;;;;5033351;28;20224;-76
2023/01/12 08:05:20;;;;;;;1.13;1.13;;;;;6.20;96033.00;;;;5035762;28;20214;-69
2023/01/12 08:07:47;;;;;;;0.50;0.50;;;7.10;92.10;6.50;96032.00;;;;5033200;28;20574;-76
2023/01/12 08:10:15;;;;;;;0.67;0.67;;;;;6.60;96022.00;;;;5034337;28;20213;-75
2023/01/12 08:12:42;;;;;;;0.70;0.70;;;7.20;90.80;6.50;96033.00;;;;5014161;28;20202;-76
2023/01/12 08:15:12;;;;;;;1.33;1.27;;;7.30;91.70;6.40;96032.00;;;;5014684;28;20199;-76
2023/01/12 08:17:46;;;;;;;0.53;0.53;;;7.20;92.10;6.50;96048.00;;;;5014424;28;20667;-76
2023/01/12 08:20:22;;;;;;;2.10;1.30;;;7.20;91.30;6.30;96033.00;;;;5014730;28;20185;-75
2023/01/12 08:22:55;;;;;;;0.60;0.60;;;7.10;92.20;6.30;96045.00;;;;5014667;28;20189;-76
2023/01/12 08:25:29;;;;;;;0.77;0.77;;;7.20;92.10;6.30;96054.00;;;;5014472;28;20203;-76
2023/01/12 08:28:02;;;;;;;19.37;1.00;;;7.10;92.80;6.50;96055.00;;;;5014262;28;20216;-77
2023/01/12 08:30:30;;;;;;;0.60;0.60;;;7.20;92.40;6.50;96063.00;;;;5014658;28;20185;-76
2023/01/12 08:33:01;;;;;;;0.60;0.60;;;7.20;92.30;6.60;96075.00;;;;5011775;28;20193;-77
2023/01/12 08:35:34;;;;;;;0.60;0.60;;;7.40;92.10;6.60;96066.00;;;;5015578;28;20651;-76
2023/01/12 08:38:01;;;;;;;0.67;0.67;;;7.40;91.30;6.60;96066.00;;;;5014283;28;20182;-76
2023/01/12 08:41:31;;;;;;;1.23;1.23;;;7.40;91.50;6.70;96072.00;;;;5014134;28;20201;-75
2023/01/12 08:44:00;;;;;;;0.60;0.60;;;7.40;91.00;6.70;96064.00;;;;5011700;28;20266;-75
2023/01/12 08:46:06;;;;;;;0.70;0.70;;;7.40;91.00;6.70;96060.00;;;;5013852;28;20688;-76
2023/01/12 08:48:35;;;;;;;0.80;0.80;;;;;6.60;96067.00;;;;4996264;28;20205;-77
2023/01/12 08:51:05;;;;;;;1.37;1.27;;;;;6.60;96067.00;;;;4997039;28;20233;-80
2023/01/12 08:53:32;;;;;;;3.00;1.33;;;;;6.50;96064.00;;;;5014205;28;20215;-75
2023/01/12 08:55:59;;;;;;;0.40;0.40;;;;;6.60;96073.00;;;;5014108;28;20613;-77
2023/01/12 08:58:27;;;;;;;0.60;0.60;;;;;6.70;96070.00;;;;5014050;28;20563;-77
2023/01/12 09:00:54;;;;;;;0.60;0.60;;;;;6.80;96064.00;;;;5013637;28;20247;-76
2023/01/12 09:03:22;;;;;;;0.70;0.70;;;;;6.60;96074.00;;;;5014682;28;20802;-77
2023/01/12 09:05:49;;;;;;;0.70;0.70;;;;;6.60;96078.00;;;;5012679;28;20216;-77
2023/01/12 09:08:18;;;;;;;0.60;0.60;;;7.30;92.00;6.60;96059.00;;;;5013912;28;20205;-77
2023/01/12 09:10:45;;;;;;;0.87;0.87;;;7.40;91.70;6.70;96077.00;;;;5013954;28;20219;-77
2023/01/12 09:13:14;;;;;;;1.40;1.00;;;7.60;91.30;6.90;96071.00;;;;5013580;28;20213;-76
2023/01/12 09:15:42;;;;;;;0.80;0.80;;;;;6.80;96085.00;;;;5013505;28;20266;-76
2023/01/12 09:18:09;;;;;;;0.77;0.77;;;;;6.70;96091.00;;;;5014188;28;20205;-76
2023/01/12 09:20:37;;;;;;;1.10;1.00;;;;;6.70;96094.00;;;;5012864;28;20225;-76
2023/01/12 09:23:04;;;;;;;0.87;0.87;;;;;6.80;96118.00;;;;5013883;28;20227;-76
2023/01/12 09:25:35;;;;;;;0.97;0.97;;;;;6.80;96098.00;;;;5013225;28;20220;-78
2023/01/12 09:28:02;;;;;;;2.07;1.70;;;;;6.60;96102.00;;;;5013852;28;20190;-76
2023/01/12 09:30:30;;;;;;;0.80;0.80;;;;;6.60;96112.00;;;;5012611;28;20206;-77
2023/01/12 09:32:58;;;;;;;0.57;0.57;;;;;6.60;96104.00;;;;5013351;28;20196;-76
2023/01/12 09:35:25;;;;;;;0.80;0.80;;;;;6.70;96099.00;;;;5012557;28;20200;-77
2023/01/12 09:37:53;;;;;;;0.60;0.60;;;;;6.80;96110.00;;;;4995688;28;20664;-76
2023/01/12 09:40:21;;;;;;;0.67;0.67;;;;;6.60;96112.00;;;;5012434;28;20698;-76
2023/01/12 09:48:23;;;;;;;4.53;1.17;;;;;6.90;96083.00;;;;5012399;28;20200;-76
2023/01/12 09:50:55;;;;;;;0.93;0.93;;;;;7.00;96091.00;;;;5012915;28;20232;-76
2023/01/12 09:53:27;;;;;;;0.60;0.60;;;7.60;90.00;6.90;96066.00;;;;5012830;28;20255;-76
2023/01/12 09:56:04;;;;;;;0.60;0.60;;;7.60;91.10;7.20;96071.00;;;;5012528;28;20699;-77
2023/01/12 09:59:06;;;;;;;0.60;0.60;;;7.80;90.60;7.20;96066.00;;;;5013010;28;20185;-78
2023/01/12 10:01:35;;;;;;;0.83;0.83;;;8.00;89.20;7.20;96063.00;;;;5008445;28;20228;-77
2023/01/12 10:04:05;;;;;;;0.97;0.97;;;8.00;89.60;7.10;96064.00;;;;5012422;28;20707;-76
2023/01/12 10:06:34;;;;;;;0.77;0.77;;;7.90;89.10;7.10;96078.00;;;;5012441;28;20201;-77
2023/01/12 10:09:04;;;;;;;0.57;0.57;;;7.90;89.00;7.20;96052.00;;;;5012303;28;20205;-77
2023/01/12 10:11:38;;;;;;;0.60;0.60;;;;;7.30;96031.00;;;;5012494;28;20263;-77
2023/01/12 10:14:41;;;;;;;0.50;0.50;;;;;7.30;96046.00;;;;5012351;28;20200;-77
2023/01/12 10:17:25;;;;;;;0.60;0.60;;;;;7.30;96036.00;;;;4966108;28;20243;-76
2023/01/12 10:20:02;;;;;;;0.57;0.57;;;8.00;87.00;7.30;96034.00;;;;5008933;28;20674;-77
2023/01/12 10:22:38;;;;;;;1.10;1.10;;;8.00;87.80;7.40;96038.00;;;;5008485;28;20231;-77
2023/01/12 10:25:36;;;;;;;0.70;0.70;;;8.10;87.70;7.40;96039.00;;;;5012184;28;20191;-78
2023/01/12 10:28:12;;;;;;;0.67;0.67;;;8.10;86.60;7.30;96042.00;;;;5010560;28;20289;-77
2023/01/12 10:30:42;;;;;;;1.37;1.07;;;8.10;87.60;7.40;96040.00;;;;5011637;28;20251;-75
2023/01/12 10:33:15;;;;;;;0.90;0.90;;;;;7.40;96037.00;;;;5011951;28;20751;-76
2023/01/12 10:35:56;;;;;;;0.97;0.97;;;8.20;86.10;7.50;96039.00;;;;5011773;28;20213;-76
2023/01/12 10:38:32;;;;;;;1.97;0.90;;;8.20;86.00;7.50;96050.00;;;;5011765;28;20190;-77
2023/01/12 10:41:22;;;;;;;0.93;0.93;;;8.20;85.60;7.40;96043.00;;;;5011790;28;20687;-76
2023/01/12 10:44:14;;;;;;;0.70;0.70;;;8.20;86.40;7.50;96038.00;;;;5006418;28;20680;-78
2023/01/12 10:46:42;;;;;;;0.60;0.60;;;;;7.40;96047.00;;;;4992743;28;20623;-75
2023/01/12 10:49:18;;;;;;;0.60;0.60;;;8.20;88.00;7.40;96038.00;;;;5011413;28;20197;-77
2023/01/12 10:51:57;;;;;;;0.60;0.60;;;;;7.50;96028.00;;;;5011580;28;20225;-77
2023/01/12 10:54:30;;;;;;;0.50;0.50;;;8.20;86.40;7.50;96026.00;;;;5011574;28;20280;-78
2023/01/12 10:57:01;;;;;;;1.10;1.07;;;8.20;86.30;7.50;96018.00;;;;5011528;28;20296;-78
2023/01/12 10:59:32;;;;;;;0.60;0.60;;;8.30;86.80;7.80;96011.00;;;;5011506;28;20197;-77
2023/01/12 11:02:15;;;;;;;0.60;0.60;;;8.40;85.90;7.70;96022.00;;;;5011330;28;20243;-77
2023/01/12 11:04:46;;;;;;;0.57;0.57;;;8.40;85.30;7.60;96019.00;;;;5006796;28;20640;-76
2023/01/12 11:07:17;;;;;;;0.90;0.90;;;;;7.60;96031.00;;;;5006893;28;20196;-75
2023/01/12 11:09:45;;;;;;;0.50;0.50;;;;;7.50;96031.00;;;;5011040;28;20695;-75
2023/01/12 11:12:23;;;;;;;0.50;0.50;;;;;7.60;96029.00;;;;4994016;28;20765;-76
2023/01/12 11:15:02;;;;;;;0.50;0.50;;;;;7.50;96028.00;;;;5010947;28;20193;-76
2023/01/12 11:17:47;;;;;;;0.60;0.60;;;;;7.50;96029.00;;;;5011418;28;20307;-76
2023/01/12 11:20:21;;;;;;;0.50;0.50;;;;;7.60;96025.00;;;;5011122;28;20204;-76
2023/01/12 11:22:53;;;;;;;0.57;0.57;;;;;7.50;96035.00;;;;5010090;28;20201;-77
2023/01/12 11:25:23;;;;;;;0.60;0.60;;;;;7.40;96026.00;;;;5011142;28;20213;-75
2023/01/12 11:27:58;;;;;;;0.50;0.50;;;;;7.50;96045.00;;;;4994146;28;20197;-77
2023/01/12 11:30:31;;;;;;;0.80;0.80;;;;;7.40;96029.00;;;;5010577;28;20275;-76
2023/01/12 11:33:07;;;;;;;0.57;0.57;;;;;7.50;96029.00;;;;5005216;28;20664;-76
2023/01/12 11:35:40;;;;;;;0.60;0.60;;;;;7.40;96045.00;;;;5010653;28;20262;-76
2023/01/12 11:38:13;;;;;;;0.60;0.60;;;;;7.40;96025.00;;;;5012121;28;20220;-77
2023/01/12 11:40:42;;;;;;;0.80;0.80;;;8.10;88.20;7.30;96021.00;;;;5011369;28;20315;-75
2023/01/12 11:46:14;;;;;;;0.73;0.70;;;;;7.40;96026.00;;;;5011278;28;20245;-76
2023/01/12 11:48:50;;;;;;;0.60;0.60;;;;;7.50;96012.00;;;;5011685;28;20595;-77
2023/01/12 11:51:18;;;;;;;0.60;0.60;;;;;7.50;96003.00;;;;5010874;28;20308;-77
2023/01/12 11:53:46;;;;;;;0.60;0.60;;;;;7.50;96010.00;;;;5010778;28;20255;-78
2023/01/12 11:56:43;;;;;;;0.70;0.70;;;;;7.50;96003.00;;;;5010331;28;20248;-78
2023/01/12 11:59:14;;;;;;;0.50;0.50;;;;;7.50;96003.00;;;;5010723;28;20244;-77
2023/01/12 12:01:53;;;;;;;0.50;0.50;;;8.20;89.10;7.50;95988.00;;;;5010499;28;20252;-77
2023/01/12 12:04:42;;;;;;;0.60;0.60;;;;;7.70;95989.00;;;;5006629;28;20189;-75
2023/01/12 12:07:20;;;;;;;0.60;0.60;;;;;7.70;95989.00;;;;5010609;28;20196;-77
2023/01/12 12:10:00;;;;;;;0.87;0.87;;;;;7.70;95990.00;;;;5006152;28;20201;-77
2023/01/12 12:12:37;;;;;;;0.60;0.60;;;;;7.50;95977.00;;;;5009051;28;20271;-76
2023/01/12 12:15:20;;;;;;;0.50;0.50;;;;;7.60;95992.00;;;;5010613;28;20196;-71
2023/01/12 12:18:01;;;;;;;0.67;0.67;;;;;7.70;95987.00;;;;5010800;28;20695;-70
2023/01/12 12:20:43;;;;;;;0.53;0.53;;;8.40;88.60;7.70;95982.00;;;;5007621;28;20649;-71
2023/01/12 12:23:30;;;;;;;0.70;0.70;;;8.40;90.20;7.70;95982.00;;;;5009917;28;20189;-71
2023/01/12 12:26:10;;;;;;;0.90;0.90;;;;;7.60;95971.00;;;;5007289;28;20193;-71
2023/01/12 12:29:00;;;;;;;0.60;0.60;;;;;7.70;95966.00;;;;5010714;28;20201;-70
2023/01/12 12:31:43;;;;;;;0.50;0.50;;;;;8.00;95958.00;;;;5009977;28;20225;-71
2023/01/12 12:34:34;;;;;;;0.57;0.57;;;;;7.80;95956.00;;;;5010804;28;20189;-70
2023/01/12 12:37:12;;;;;;;0.50;0.50;;;;;8.00;95940.00;;;;5007475;28;20213;-73
2023/01/12 12:39:49;;;;;;;0.50;0.50;;;;;8.00;95945.00;;;;5010760;28;20200;-73
2023/01/12 12:45:26;;;;;;;0.60;0.60;;;;;7.80;95954.00;;;;5010657;28;20204;-76
2023/01/12 12:48:10;;;;;;;0.60;0.60;;;;;7.90;95937.00;;;;4996182;28;20675;-68
2023/01/12 12:50:43;;;;;;;0.73;0.70;;;;;8.10;95949.00;;;;5012254;28;20232;-74
2023/01/12 12:53:21;;;;;;;0.57;0.57;;;;;8.30;95949.00;;;;4995876;28;20558;-67
2023/01/12 12:55:50;;;;;;;0.70;0.70;;;;;8.50;95952.00;;;;5014453;28;20227;-68
2023/01/12 12:58:39;;;;;;;0.87;0.87;;;;;8.50;95946.00;;;;5007775;28;20222;-71
2023/01/12 13:01:43;;;;;;;15.13;0.97;;;;;8.20;95953.00;;;;5012500;28;20303;-72
2023/01/12 13:04:13;;;;;;;0.60;0.60;;;;;8.40;95957.00;;;;5013728;28;20272;-72